createdAt,value
2022-11-02T00:03:42.816Z,31.62
2022-11-02T00:08:38.175Z,32.51
2022-11-02T00:13:37.889Z,33.04
2022-11-02T00:18:40.796Z,33.54
2022-11-02T00:23:37.207Z,33.82
2022-11-02T00:28:39.895Z,32.79
2022-11-02T00:33:36.654Z,32.62
2022-11-02T00:38:35.882Z,32.10
2022-11-02T00:43:38.339Z,31.02
2022-11-02T00:48:34.737Z,30.72
2022-11-02T00:53:34.082Z,30.09
2022-11-02T00:58:36.399Z,30.36
2022-11-02T01:03:37.871Z,31.73
2022-11-02T01:08:35.333Z,31.81
2022-11-02T01:13:31.715Z,32.14
2022-11-02T01:18:30.992Z,30.97
2022-11-02T01:23:33.508Z,32.37
2022-11-02T01:28:31.033Z,31.68
2022-11-02T01:33:29.424Z,30.83
2022-11-02T01:38:29.110Z,30.05
2022-11-02T01:43:31.628Z,29.29
2022-11-02T01:48:27.893Z,31.63
2022-11-02T01:53:27.239Z,29.91
2022-11-02T01:58:31.463Z,30.46
2022-11-02T02:03:25.750Z,31.89
2022-11-02T02:08:26.060Z,31.60
2022-11-02T02:13:27.423Z,30.15
2022-11-02T02:18:23.874Z,29.73
2022-11-02T02:23:23.382Z,29.97
2022-11-02T02:28:25.840Z,30.48
2022-11-02T02:33:21.961Z,31.13
2022-11-02T02:38:24.921Z,31.84
2022-11-02T02:43:21.650Z,30.98
2022-11-02T02:48:21.070Z,29.77
2022-11-02T02:53:23.653Z,30.55
2022-11-02T02:58:20.522Z,31.74
2022-11-02T03:03:19.772Z,31.26
2022-11-02T03:08:19.285Z,30.95
2022-11-02T03:13:23.187Z,30.30
2022-11-02T03:18:22.892Z,33.84
2022-11-02T03:23:18.088Z,33.13
2022-11-02T03:28:20.989Z,31.80
2022-11-02T03:33:20.317Z,32.55
2022-11-02T03:38:16.553Z,32.70
2022-11-02T03:43:16.057Z,31.38
2022-11-02T03:48:18.679Z,31.13
2022-11-02T03:53:15.177Z,30.42
2022-11-02T03:58:14.516Z,31.89
2022-11-02T04:03:16.938Z,31.06
2022-11-02T04:08:15.237Z,31.39
2022-11-02T04:13:12.539Z,32.63
2022-11-02T04:18:16.760Z,31.47
2022-11-02T04:23:11.040Z,33.07
2022-11-02T04:28:10.253Z,33.83
2022-11-02T04:33:12.617Z,34.52
2022-11-02T04:38:08.829Z,33.91
2022-11-02T04:43:08.298Z,33.08
2022-11-02T04:48:10.722Z,34.81
2022-11-02T04:53:09.411Z,34.29
2022-11-02T04:58:07.651Z,32.29
2022-11-02T05:03:12.440Z,31.26
2022-11-02T05:08:06.463Z,33.03
2022-11-02T05:13:06.169Z,35.17
2022-11-02T05:18:18.649Z,29.51
2022-11-02T05:23:04.864Z,33.07
2022-11-02T05:28:07.812Z,36.75
2022-11-02T05:33:05.856Z,32.83
2022-11-02T05:38:03.478Z,34.66
2022-11-02T05:43:06.037Z,31.71
2022-11-02T05:48:02.736Z,32.57
2022-11-02T05:53:02.624Z,30.70
2022-11-02T05:58:04.416Z,30.12
2022-11-02T06:03:04.749Z,30.96
2022-11-02T06:08:00.325Z,29.79
2022-11-02T06:13:03.690Z,28.86
2022-11-02T06:17:59.226Z,29.78
2022-11-02T06:23:01.909Z,30.67
2022-11-02T06:28:06.140Z,33.16
2022-11-02T06:32:58.655Z,32.36
2022-11-02T06:37:56.883Z,29.70
2022-11-02T06:43:16.031Z,31.64
2022-11-02T06:48:04.473Z,32.97
2022-11-02T06:52:54.590Z,31.23
2022-11-02T06:57:55.060Z,33.56
2022-11-02T07:02:53.150Z,32.85
2022-11-02T07:07:55.788Z,33.47
2022-11-02T07:12:52.111Z,33.06
2022-11-02T07:17:51.996Z,35.02
2022-11-02T07:22:54.546Z,39.47
2022-11-02T07:27:50.919Z,39.12
2022-11-02T07:32:53.325Z,33.68
2022-11-02T07:37:50.068Z,43.85
2022-11-02T07:42:49.495Z,37.73
2022-11-02T07:47:51.960Z,36.14
2022-11-02T07:52:48.215Z,41.66
2022-11-02T07:57:48.339Z,42.09
2022-11-02T08:02:46.765Z,39.18
2022-11-02T08:07:46.251Z,37.18
2022-11-02T08:12:48.747Z,39.55
2022-11-02T08:17:44.819Z,38.62
2022-11-02T08:22:43.918Z,38.22
2022-11-02T08:27:46.393Z,41.44
2022-11-02T08:32:42.872Z,42.45
2022-11-02T08:37:42.190Z,40.26
2022-11-02T08:42:44.838Z,40.44
2022-11-02T08:47:44.771Z,43.35
2022-11-02T08:52:44.000Z,37.50
2022-11-02T08:57:40.497Z,37.44
2022-11-02T09:02:42.748Z,36.86
2022-11-02T09:07:39.073Z,39.47
2022-11-02T09:12:38.382Z,39.35
2022-11-02T09:17:40.669Z,38.13
2022-11-02T09:22:37.386Z,41.42
2022-11-02T09:27:40.026Z,34.88
2022-11-02T09:32:36.143Z,36.53
2022-11-02T09:37:35.493Z,35.92
2022-11-02T09:42:37.908Z,35.84
2022-11-02T09:48:14.886Z,36.10
2022-11-02T09:52:34.014Z,33.84
2022-11-02T09:57:36.826Z,31.69
2022-11-02T10:02:33.083Z,38.42
2022-11-02T10:07:35.402Z,41.89
2022-11-02T10:12:31.539Z,42.62
2022-11-02T10:17:34.020Z,40.07
2022-11-02T10:22:30.622Z,35.89
2022-11-02T10:27:34.158Z,37.75
2022-11-02T10:32:32.645Z,31.84
2022-11-02T10:37:29.158Z,28.69
2022-11-02T10:42:32.063Z,28.96
2022-11-02T10:47:28.248Z,34.36
2022-11-02T10:52:28.100Z,35.77
2022-11-02T10:57:30.719Z,36.59
2022-11-02T11:02:27.267Z,34.04
2022-11-02T11:07:29.949Z,35.40
2022-11-02T11:12:26.136Z,36.80
2022-11-02T11:22:27.871Z,36.92
2022-11-02T11:27:24.278Z,42.31
2022-11-02T11:32:27.210Z,36.60
2022-11-02T11:37:26.384Z,35.66
2022-11-02T11:42:22.501Z,40.44
2022-11-02T11:47:26.701Z,52.33
2022-11-02T11:52:21.091Z,45.11
2022-11-02T11:57:20.378Z,45.02
2022-11-02T12:02:20.026Z,39.84
2022-11-02T12:07:22.281Z,34.17
2022-11-02T12:12:18.440Z,35.32
2022-11-02T12:17:17.676Z,37.34
2022-11-02T12:22:20.157Z,36.45
2022-11-02T12:27:16.514Z,34.20
2022-11-02T12:32:19.013Z,37.06
2022-11-02T12:37:37.179Z,36.29
2022-11-02T12:42:14.734Z,35.94
2022-11-02T12:47:14.145Z,39.29
2022-11-02T12:52:16.455Z,40.84
2022-11-02T12:57:12.700Z,42.53
2022-11-02T13:02:11.890Z,40.71
2022-11-02T13:07:16.132Z,38.45
2022-11-02T13:12:00.039Z,50.10
2022-11-02T13:17:42.571Z,48.23
2022-11-02T13:22:43.458Z,43.75
2022-11-02T13:27:42.115Z,50.06
2022-11-02T13:32:39.751Z,52.81
2022-11-02T13:37:39.787Z,53.97
2022-11-02T13:42:44.798Z,55.31
2022-11-02T13:47:44.077Z,56.68
2022-11-02T13:52:39.921Z,51.34
2022-11-02T13:57:38.816Z,54.14
2022-11-02T14:02:44.696Z,52.46
2022-11-02T14:07:37.526Z,57.08
2022-11-02T14:12:45.773Z,50.30
2022-11-02T14:17:46.577Z,57.37
2022-11-02T14:22:37.135Z,57.21
2022-11-02T14:27:43.275Z,55.16
2022-11-02T14:32:41.438Z,64.77
2022-11-02T14:37:36.015Z,60.53
2022-11-02T14:47:39.789Z,65.04
2022-11-02T14:52:41.501Z,56.02
2022-11-02T15:18:31.621Z,51.95
2022-11-02T15:27:35.731Z,50.48
2022-11-02T15:32:36.814Z,53.29
2022-11-02T15:37:50.448Z,48.66
2022-11-02T15:42:29.915Z,47.15
2022-11-02T15:47:35.005Z,47.44
2022-11-02T15:52:29.803Z,52.77
2022-11-02T15:57:31.019Z,47.76
2022-11-02T16:02:33.605Z,45.81
2022-11-02T16:07:33.484Z,46.26
2022-11-02T16:12:25.993Z,43.32
2022-11-02T16:17:41.772Z,42.94
2022-11-02T16:22:27.736Z,45.39
2022-11-02T16:27:31.495Z,47.43
2022-11-02T16:32:26.923Z,46.28
2022-11-02T16:37:25.893Z,45.30
2022-11-02T16:42:24.838Z,46.50
2022-11-02T16:47:24.171Z,43.53
2022-11-02T16:52:31.950Z,43.36
2022-11-02T16:57:20.904Z,40.70
2022-11-02T17:02:28.070Z,41.53
2022-11-02T17:07:20.018Z,41.84
2022-11-02T17:12:20.303Z,40.81
2022-11-02T17:17:21.096Z,42.30
2022-11-02T17:22:19.937Z,40.48
2022-11-02T17:27:17.693Z,41.69
2022-11-02T17:32:20.817Z,43.76
2022-11-02T17:37:30.183Z,42.00
2022-11-02T17:42:19.689Z,43.81
2022-11-02T17:47:15.590Z,43.55
2022-11-02T17:52:19.880Z,41.01
2022-11-02T17:57:17.603Z,40.01
2022-11-02T18:02:20.101Z,40.71
2022-11-02T18:07:18.801Z,40.93
2022-11-02T18:12:15.866Z,42.09
2022-11-02T18:17:16.620Z,41.83
2022-11-02T18:22:26.215Z,42.90
2022-11-02T18:27:26.242Z,41.59
2022-11-02T18:32:13.823Z,41.93
2022-11-02T18:37:39.789Z,40.34
2022-11-02T18:42:12.122Z,43.83
2022-11-02T18:47:13.586Z,45.07
2022-11-02T18:52:19.719Z,45.40
2022-11-02T18:57:15.891Z,44.32
2022-11-02T19:02:14.485Z,44.89
2022-11-02T19:07:16.663Z,44.65
2022-11-02T19:12:14.716Z,43.93
2022-11-02T19:17:09.960Z,46.19
2022-11-02T19:22:14.872Z,49.86
2022-11-02T19:27:20.066Z,49.84
2022-11-02T19:32:06.484Z,52.23
2022-11-02T22:27:49.614Z,23.26
2022-11-02T22:33:37.893Z,29.24
2022-11-02T22:38:36.786Z,29.47
2022-11-02T22:43:38.421Z,30.12
2022-11-02T22:48:34.856Z,31.28
2022-11-02T22:53:37.512Z,32.63
2022-11-02T22:58:33.758Z,29.95
2022-11-02T23:03:40.050Z,31.57
2022-11-02T23:08:33.331Z,30.91
2022-11-02T23:13:31.559Z,30.97
2022-11-02T23:18:33.754Z,31.61
2022-11-02T23:23:35.932Z,30.67
2022-11-02T23:33:28.496Z,31.48
2022-11-02T23:38:30.906Z,31.24
2022-11-02T23:43:30.604Z,31.64
2022-11-02T23:48:26.924Z,32.69
2022-11-02T23:53:29.374Z,31.99
2022-11-02T23:58:28.823Z,31.35
